createdAt,value
2022-08-07T00:02:35.640Z,0.60
2022-08-07T00:04:00.963Z,0.50
2022-08-07T00:06:33.425Z,0.60
2022-08-07T00:09:16.722Z,0.30
2022-08-07T00:11:55.941Z,0.50
2022-08-07T00:14:29.990Z,0.40
2022-08-07T00:17:00.235Z,0.40
2022-08-07T00:20:00.277Z,0.50
2022-08-07T00:22:24.782Z,0.57
2022-08-07T00:25:07.505Z,0.40
2022-08-07T00:27:52.760Z,0.33
2022-08-07T00:30:26.718Z,0.50
2022-08-07T00:32:56.949Z,0.70
2022-08-07T00:35:23.897Z,0.47
2022-08-07T00:37:51.123Z,0.47
2022-08-07T00:40:39.737Z,0.43
2022-08-07T00:43:09.746Z,0.57
2022-08-07T00:45:40.958Z,0.53
2022-08-07T00:48:11.047Z,0.50
2022-08-07T00:50:50.456Z,0.50
2022-08-07T00:53:20.954Z,0.50
2022-08-07T00:56:00.658Z,0.50
2022-08-07T00:58:32.468Z,0.40
2022-08-07T01:00:59.515Z,0.50
2022-08-07T01:03:57.126Z,0.60
2022-08-07T01:06:13.685Z,0.60
2022-08-07T01:08:53.132Z,0.37
2022-08-07T01:12:23.839Z,0.40
2022-08-07T01:14:08.957Z,0.70
2022-08-07T01:16:36.738Z,0.50
2022-08-07T01:19:04.750Z,0.50
2022-08-07T01:21:41.867Z,0.50
2022-08-07T01:24:09.929Z,0.60
2022-08-07T01:26:37.109Z,0.60
2022-08-07T01:29:05.281Z,0.60
2022-08-07T01:31:42.555Z,0.60
2022-08-07T01:34:14.202Z,0.40
2022-08-07T01:36:40.960Z,0.60
2022-08-07T01:39:11.556Z,0.63
2022-08-07T01:41:40.931Z,0.53
2022-08-07T01:44:27.037Z,0.50
2022-08-07T01:46:54.505Z,0.50
2022-08-07T01:49:22.146Z,0.33
2022-08-07T01:52:01.807Z,0.50
2022-08-07T01:54:36.963Z,0.50
2022-08-07T01:57:28.848Z,0.50
2022-08-07T02:00:28.934Z,0.57
2022-08-07T02:03:18.102Z,0.43
2022-08-07T02:06:08.997Z,0.30
2022-08-07T02:08:54.325Z,0.60
2022-08-07T02:12:02.610Z,0.40
2022-08-07T02:14:11.082Z,0.50
2022-08-07T02:16:58.696Z,0.50
2022-08-07T02:20:05.034Z,0.60
2022-08-07T02:22:14.391Z,0.50
2022-08-07T02:24:48.517Z,0.60
2022-08-07T02:27:18.498Z,0.50
2022-08-07T02:29:54.247Z,0.43
2022-08-07T02:32:29.891Z,0.50
2022-08-07T02:34:58.624Z,0.50
2022-08-07T02:37:34.243Z,0.63
2022-08-07T02:40:29.949Z,0.50
2022-08-07T02:42:52.737Z,0.50
2022-08-07T02:46:01.649Z,0.50
2022-08-07T02:48:10.182Z,0.70
2022-08-07T02:50:43.021Z,0.60
2022-08-07T02:53:15.164Z,0.67
2022-08-07T02:56:02.990Z,0.70
2022-08-07T02:58:34.108Z,0.80
2022-08-07T03:01:03.107Z,0.80
2022-08-07T03:03:50.102Z,0.60
2022-08-07T03:06:26.086Z,0.70
2022-08-07T03:09:02.081Z,0.70
2022-08-07T03:11:32.673Z,0.60
2022-08-07T03:14:01.786Z,0.70
2022-08-07T03:16:32.868Z,0.47
2022-08-07T03:19:00.355Z,0.50
2022-08-07T03:21:27.938Z,0.60
2022-08-07T03:24:18.359Z,0.67
2022-08-07T03:26:57.978Z,0.70
2022-08-07T03:29:36.768Z,0.70
2022-08-07T03:32:12.968Z,0.60
2022-08-07T03:34:47.292Z,0.60
2022-08-07T03:37:32.392Z,0.60
2022-08-07T03:40:15.889Z,0.60
2022-08-07T03:42:43.910Z,0.50
2022-08-07T03:45:11.872Z,0.60
2022-08-07T03:47:47.773Z,0.60
2022-08-07T03:50:23.287Z,0.77
2022-08-07T03:52:52.401Z,0.60
2022-08-07T03:55:19.737Z,0.50
2022-08-07T03:58:34.862Z,0.60
2022-08-07T04:00:36.574Z,0.60
2022-08-07T04:03:05.279Z,0.70
2022-08-07T04:05:40.259Z,0.57
2022-08-07T04:08:16.113Z,0.50
2022-08-07T04:10:54.375Z,0.50
2022-08-07T04:14:10.775Z,0.70
2022-08-07T04:16:30.372Z,0.80
2022-08-07T04:19:01.279Z,0.60
2022-08-07T04:21:31.971Z,0.90
2022-08-07T04:24:07.549Z,0.70
2022-08-07T04:26:34.816Z,0.60
2022-08-07T04:29:02.997Z,0.90
2022-08-07T04:31:38.499Z,1.17
2022-08-07T04:34:24.224Z,0.70
2022-08-07T04:37:00.307Z,0.70
2022-08-07T04:39:29.227Z,0.70
2022-08-07T04:42:03.911Z,0.80
2022-08-07T04:44:30.880Z,0.60
2022-08-07T04:47:09.122Z,0.80
2022-08-07T04:50:05.773Z,0.70
2022-08-07T04:52:51.832Z,0.70
2022-08-07T04:58:14.163Z,0.80
2022-08-07T04:58:47.592Z,1.10
2022-08-07T05:01:46.911Z,0.83
2022-08-07T05:04:24.323Z,1.00
2022-08-07T05:06:58.418Z,1.30
2022-08-07T05:10:04.692Z,1.20
2022-08-07T05:12:51.453Z,1.20
2022-08-07T05:15:27.099Z,1.10
2022-08-07T05:18:08.676Z,1.30
2022-08-07T05:20:42.909Z,1.47
2022-08-07T05:23:51.125Z,1.37
2022-08-07T05:26:24.385Z,1.90
2022-08-07T05:28:56.620Z,1.67
2022-08-07T05:31:34.837Z,1.80
2022-08-07T05:34:05.578Z,1.90
2022-08-07T05:36:40.003Z,1.80
2022-08-07T05:40:05.660Z,2.17
2022-08-07T05:42:01.664Z,2.00
2022-08-07T05:44:33.631Z,1.60
2022-08-07T05:47:01.665Z,1.60
2022-08-07T05:49:48.127Z,2.13
2022-08-07T05:52:14.839Z,2.50
2022-08-07T05:54:55.331Z,2.20
2022-08-07T05:57:30.074Z,1.77
2022-08-07T06:00:01.301Z,2.10
2022-08-07T06:02:33.151Z,2.40
2022-08-07T06:05:15.517Z,2.20
2022-08-07T06:08:14.034Z,2.30
2022-08-07T06:10:30.467Z,2.10
2022-08-07T06:12:57.229Z,2.30
2022-08-07T06:15:42.529Z,1.90
2022-08-07T06:18:13.797Z,2.50
2022-08-07T06:20:50.859Z,2.30
2022-08-07T06:24:38.150Z,2.33
2022-08-07T06:26:16.629Z,2.07
2022-08-07T06:28:53.856Z,2.53
2022-08-07T06:31:21.256Z,2.50
2022-08-07T06:34:05.246Z,2.63
2022-08-07T06:36:35.274Z,2.57
2022-08-07T06:40:15.819Z,2.50
2022-08-07T06:42:01.936Z,2.50
2022-08-07T06:44:36.513Z,2.00
2022-08-07T06:47:10.234Z,1.70
2022-08-07T06:49:51.949Z,1.80
2022-08-07T06:52:32.049Z,1.70
2022-08-07T06:55:33.474Z,1.50
2022-08-07T06:57:59.266Z,1.47
2022-08-07T07:00:30.888Z,1.70
2022-08-07T07:03:00.721Z,1.67
2022-08-07T07:06:03.579Z,1.43
2022-08-07T07:08:18.188Z,1.90
2022-08-07T07:10:57.061Z,1.40
2022-08-07T07:13:55.480Z,1.50
2022-08-07T07:16:27.632Z,1.20
2022-08-07T07:19:04.168Z,1.40
2022-08-07T07:22:04.671Z,1.20
2022-08-07T07:24:42.878Z,1.13
2022-08-07T07:27:27.204Z,1.30
2022-08-07T07:30:09.605Z,1.20
2022-08-07T07:32:40.772Z,1.00
2022-08-07T07:35:14.591Z,1.10
2022-08-07T07:37:49.920Z,0.90
2022-08-07T07:40:26.693Z,0.90
2022-08-07T07:42:55.598Z,0.73
2022-08-07T07:46:36.561Z,1.00
2022-08-07T07:48:35.162Z,0.90
2022-08-07T07:51:07.827Z,1.10
2022-08-07T07:53:52.222Z,0.90
2022-08-07T07:56:30.585Z,1.00
2022-08-07T07:59:02.643Z,0.70
2022-08-07T08:02:03.512Z,1.00
2022-08-07T08:04:25.620Z,0.70
2022-08-07T08:06:54.130Z,0.70
2022-08-07T08:09:29.568Z,0.90
2022-08-07T08:12:01.651Z,0.80
2022-08-07T08:14:34.120Z,0.73
2022-08-07T08:17:56.094Z,0.70
2022-08-07T08:20:22.111Z,0.70
2022-08-07T08:23:03.299Z,0.50
2022-08-07T08:25:52.367Z,0.60
2022-08-07T08:28:37.625Z,0.70
2022-08-07T08:31:15.986Z,0.70
2022-08-07T08:33:49.432Z,0.50
2022-08-07T08:36:25.758Z,0.80
2022-08-07T08:38:59.751Z,0.40
2022-08-07T08:41:57.022Z,0.67
2022-08-07T08:44:33.866Z,0.70
2022-08-07T08:47:25.240Z,0.50
2022-08-07T08:50:28.656Z,0.60
2022-08-07T08:53:32.407Z,0.70
2022-08-07T08:56:24.684Z,0.60
2022-08-07T08:59:00.295Z,0.60
2022-08-07T09:02:11.013Z,0.60
2022-08-07T09:04:42.773Z,0.50
2022-08-07T09:07:46.210Z,0.50
2022-08-07T09:10:44.393Z,0.50
2022-08-07T09:13:37.537Z,0.70
2022-08-07T09:16:20.089Z,0.47
2022-08-07T09:19:51.716Z,0.87
2022-08-07T09:24:27.487Z,0.70
2022-08-07T09:25:24.950Z,0.40
2022-08-07T09:28:04.024Z,0.50
2022-08-07T09:30:54.574Z,0.40
2022-08-07T09:34:00.754Z,0.50
2022-08-07T09:36:35.657Z,0.50
2022-08-07T09:39:52.832Z,0.40
2022-08-07T09:42:23.121Z,0.50
2022-08-07T09:47:23.515Z,0.50
2022-08-07T09:48:50.164Z,0.40
2022-08-07T09:52:15.533Z,0.30
2022-08-07T09:54:47.080Z,0.40
2022-08-07T09:57:47.521Z,0.30
2022-08-07T10:00:29.784Z,0.40
2022-08-07T10:04:05.963Z,0.73
2022-08-07T10:06:17.525Z,0.50
2022-08-07T10:08:49.526Z,0.50
2022-08-07T10:12:01.807Z,0.30
2022-08-07T10:14:55.298Z,0.40
2022-08-07T10:18:03.083Z,0.70
2022-08-07T10:21:19.790Z,0.30
2022-08-07T10:24:21.510Z,0.40
2022-08-07T10:27:12.601Z,0.30
2022-08-07T10:30:19.964Z,0.45
2022-08-07T10:33:06.572Z,0.30
2022-08-07T10:36:12.425Z,0.40
2022-08-07T10:38:51.207Z,0.40
2022-08-07T10:41:47.473Z,0.50
2022-08-07T10:44:45.438Z,0.40
2022-08-07T10:47:53.960Z,0.47
2022-08-07T10:50:29.380Z,0.80
2022-08-07T10:53:08.191Z,0.60
2022-08-07T10:55:57.199Z,0.50
2022-08-07T10:58:59.940Z,0.40
2022-08-07T11:02:12.061Z,0.40
2022-08-07T11:04:57.553Z,0.40
2022-08-07T11:07:58.651Z,0.40
2022-08-07T11:10:40.137Z,0.50
2022-08-07T11:14:45.087Z,0.28
2022-08-07T11:16:30.510Z,0.30
2022-08-07T11:19:06.807Z,0.28
2022-08-07T11:21:46.680Z,0.40
2022-08-07T11:24:29.488Z,0.40
2022-08-07T11:27:13.430Z,0.40
2022-08-07T11:30:17.771Z,0.40
2022-08-07T11:33:01.341Z,0.30
2022-08-07T11:35:58.983Z,0.50
2022-08-07T11:38:37.077Z,0.50
2022-08-07T11:41:22.093Z,0.30
2022-08-07T11:44:12.788Z,0.40
2022-08-07T11:47:19.195Z,0.40
2022-08-07T11:50:30.454Z,0.40
2022-08-07T11:53:08.342Z,0.40
2022-08-07T11:56:09.664Z,0.63
2022-08-07T12:00:10.577Z,0.40
2022-08-07T12:02:35.270Z,0.50
2022-08-07T12:05:28.672Z,0.40
2022-08-07T12:08:36.889Z,0.40
2022-08-07T12:11:20.428Z,0.25
2022-08-07T12:14:03.926Z,0.40
2022-08-07T12:16:40.919Z,0.40
2022-08-07T12:19:14.634Z,0.40
2022-08-07T12:22:37.988Z,0.40
2022-08-07T12:26:03.067Z,0.30
2022-08-07T12:28:17.699Z,0.50
2022-08-07T12:31:23.579Z,0.30
2022-08-07T12:34:01.134Z,0.40
2022-08-07T12:36:33.442Z,0.40
2022-08-07T12:39:40.228Z,0.60
2022-08-07T12:41:54.784Z,0.30
2022-08-07T12:44:24.277Z,0.43
2022-08-07T12:47:09.844Z,0.90
2022-08-07T12:50:04.713Z,0.40
2022-08-07T12:52:38.607Z,0.50
2022-08-07T12:55:41.414Z,0.50
2022-08-07T12:58:16.540Z,0.40
2022-08-07T13:01:04.663Z,0.60
2022-08-07T13:04:02.048Z,0.50
2022-08-07T13:07:01.735Z,0.50
2022-08-07T13:10:28.391Z,0.50
2022-08-07T13:13:46.844Z,0.60
2022-08-07T13:16:37.363Z,0.40
2022-08-07T13:19:35.120Z,0.50
2022-08-07T13:22:32.537Z,0.40
2022-08-07T13:25:24.256Z,0.50
2022-08-07T13:28:11.481Z,0.95
2022-08-07T13:30:48.887Z,1.00
2022-08-07T13:34:30.716Z,0.68
2022-08-07T13:36:52.611Z,0.70
2022-08-07T13:40:33.741Z,0.40
2022-08-07T13:42:25.629Z,0.40
2022-08-07T13:46:07.075Z,0.52
2022-08-07T13:48:05.789Z,0.40
2022-08-07T13:50:55.650Z,0.52
2022-08-07T13:53:55.228Z,0.73
2022-08-07T13:56:40.924Z,0.52
2022-08-07T13:59:24.100Z,0.50
2022-08-07T14:02:18.725Z,0.60
2022-08-07T14:04:54.573Z,0.60
2022-08-07T14:07:24.393Z,0.50
2022-08-07T14:10:02.490Z,0.47
2022-08-07T14:13:02.780Z,0.52
2022-08-07T14:15:35.336Z,0.80
2022-08-07T14:18:29.376Z,0.30
2022-08-07T14:22:00.477Z,0.52
2022-08-07T14:24:04.965Z,0.55
2022-08-07T14:26:59.428Z,0.60
2022-08-07T14:30:07.995Z,0.70
2022-08-07T14:32:24.996Z,0.70
2022-08-07T14:34:53.429Z,0.75
2022-08-07T14:37:39.284Z,0.93
2022-08-07T14:40:17.031Z,0.50
2022-08-07T14:43:55.692Z,0.60
2022-08-07T14:45:56.358Z,0.65
2022-08-07T14:48:28.844Z,0.50
2022-08-07T14:56:42.650Z,0.63
2022-08-07T15:00:04.166Z,0.68
2022-08-07T15:02:32.145Z,0.60
2022-08-07T15:05:01.834Z,0.60
2022-08-07T15:07:47.141Z,0.60
2022-08-07T15:10:25.022Z,0.82
2022-08-07T15:13:02.576Z,0.50
2022-08-07T15:15:42.838Z,0.40
2022-08-07T15:18:33.652Z,0.50
2022-08-07T15:21:08.052Z,0.50
2022-08-07T15:25:14.832Z,0.50
2022-08-07T15:26:36.290Z,1.08
2022-08-07T15:30:08.461Z,0.50
2022-08-07T15:32:01.983Z,0.70
2022-08-07T15:38:04.444Z,0.40
2022-08-07T15:40:34.280Z,0.57
2022-08-07T15:43:52.966Z,0.50
2022-08-07T15:46:31.638Z,0.40
2022-08-07T15:49:13.352Z,0.60
2022-08-07T15:54:34.094Z,0.60
2022-08-07T15:57:02.827Z,0.60
2022-08-07T15:59:39.594Z,0.60
2022-08-07T16:02:35.566Z,0.45
2022-08-07T16:05:14.966Z,0.50
2022-08-07T16:08:31.521Z,0.70
2022-08-07T16:11:03.505Z,0.52
2022-08-07T16:14:02.883Z,0.63
2022-08-07T16:16:48.818Z,0.50
2022-08-07T16:19:58.394Z,0.70
2022-08-07T16:22:36.309Z,0.80
2022-08-07T16:25:54.299Z,0.55
2022-08-07T16:30:05.662Z,0.70
2022-08-07T16:31:51.197Z,0.40
2022-08-07T16:34:37.218Z,0.70
2022-08-07T16:38:03.425Z,0.60
2022-08-07T16:40:34.185Z,0.90
2022-08-07T16:43:02.512Z,0.70
2022-08-07T16:46:41.004Z,0.75
2022-08-07T16:50:20.763Z,0.77
2022-08-07T16:52:06.438Z,1.48
2022-08-07T16:54:58.525Z,1.00
2022-08-07T16:58:02.034Z,0.80
2022-08-07T17:00:39.017Z,0.50
2022-08-07T17:03:58.528Z,0.77
2022-08-07T17:06:41.056Z,0.70
2022-08-07T17:10:06.384Z,0.73
2022-08-07T17:12:44.025Z,0.50
2022-08-07T17:15:15.655Z,0.88
2022-08-07T17:17:48.985Z,0.73
2022-08-07T17:20:37.518Z,0.60
2022-08-07T17:23:22.822Z,0.80
2022-08-07T17:26:22.816Z,0.73
2022-08-07T17:30:14.491Z,0.60
2022-08-07T17:32:31.423Z,0.73
2022-08-07T17:35:50.945Z,0.70
2022-08-07T17:38:33.686Z,0.50
2022-08-07T17:42:04.316Z,0.60
2022-08-07T17:44:50.192Z,0.45
2022-08-07T17:47:38.092Z,0.60
2022-08-07T17:50:20.674Z,0.50
2022-08-07T17:52:59.644Z,0.82
2022-08-07T17:56:00.618Z,0.50
2022-08-07T17:58:36.946Z,0.63
2022-08-07T18:01:20.797Z,0.75
2022-08-07T18:04:04.504Z,0.60
2022-08-07T18:07:19.095Z,0.55
2022-08-07T18:10:05.758Z,0.63
2022-08-07T18:12:59.388Z,0.57
2022-08-07T18:15:37.635Z,0.50
2022-08-07T18:18:45.092Z,0.45
2022-08-07T18:21:27.495Z,0.40
2022-08-07T18:24:12.130Z,0.55
2022-08-07T18:27:39.332Z,0.68
2022-08-07T18:30:30.841Z,0.40
2022-08-07T18:33:29.087Z,0.35
2022-08-07T18:36:10.794Z,0.63
2022-08-07T18:40:05.239Z,0.40
2022-08-07T18:42:27.663Z,0.38
2022-08-07T18:45:43.305Z,0.43
2022-08-07T18:50:04.765Z,0.60
2022-08-07T18:51:18.662Z,0.50
2022-08-07T18:54:30.486Z,0.50
2022-08-07T18:57:40.030Z,0.52
2022-08-07T19:00:34.402Z,0.73
2022-08-07T19:03:16.015Z,0.60
2022-08-07T19:06:16.323Z,0.50
2022-08-07T19:08:59.799Z,0.57
2022-08-07T19:11:37.415Z,0.50
2022-08-07T19:14:39.021Z,0.30
2022-08-07T19:17:59.368Z,0.60
2022-08-07T19:20:29.954Z,0.57
2022-08-07T19:23:18.517Z,0.35
2022-08-07T19:26:22.682Z,0.70
2022-08-07T19:30:55.842Z,0.50
2022-08-07T19:32:08.134Z,0.43
2022-08-07T19:34:36.184Z,0.40
2022-08-07T19:37:17.428Z,0.40
2022-08-07T19:39:57.759Z,0.30
2022-08-07T19:46:06.305Z,0.40
2022-08-07T19:48:19.093Z,0.50
2022-08-07T19:50:53.624Z,0.47
2022-08-07T19:54:32.312Z,0.65
2022-08-07T19:57:51.466Z,0.38
2022-08-07T19:59:00.528Z,0.40
2022-08-07T20:01:52.190Z,0.40
2022-08-07T20:04:37.832Z,0.50
2022-08-07T20:07:09.445Z,0.63
2022-08-07T20:10:35.307Z,0.50
2022-08-07T20:12:43.078Z,0.40
2022-08-07T20:15:22.104Z,0.40
2022-08-07T20:18:01.376Z,0.60
2022-08-07T20:20:31.397Z,0.40
2022-08-07T20:23:22.955Z,0.40
2022-08-07T20:25:50.887Z,0.40
2022-08-07T20:28:20.551Z,0.35
2022-08-07T20:30:57.108Z,0.40
2022-08-07T20:33:37.757Z,0.60
2022-08-07T20:36:08.847Z,0.55
2022-08-07T20:38:59.817Z,0.50
2022-08-07T20:41:34.178Z,0.60
2022-08-07T20:44:12.376Z,1.07
2022-08-07T20:46:44.333Z,0.50
2022-08-07T20:49:58.223Z,0.40
2022-08-07T20:52:06.604Z,0.50
2022-08-07T20:54:41.639Z,0.30
2022-08-07T20:57:12.918Z,0.30
2022-08-07T21:00:06.971Z,0.50
2022-08-07T21:02:54.040Z,0.40
2022-08-07T21:05:42.963Z,0.50
2022-08-07T21:08:37.530Z,0.50
2022-08-07T21:11:14.169Z,0.50
2022-08-07T21:14:20.218Z,0.30
2022-08-07T21:18:02.032Z,0.40
2022-08-07T21:19:51.429Z,0.50
2022-08-07T21:22:29.932Z,0.50
2022-08-07T21:25:24.241Z,0.40
2022-08-07T21:28:16.812Z,0.40
2022-08-07T21:32:42.332Z,0.40
2022-08-07T21:34:26.414Z,0.30
2022-08-07T21:37:09.496Z,0.50
2022-08-07T21:40:18.037Z,0.40
2022-08-07T21:43:10.966Z,0.50
2022-08-07T21:46:07.573Z,0.30
2022-08-07T21:48:48.325Z,0.40
2022-08-07T21:51:32.096Z,0.50
2022-08-07T21:54:31.619Z,0.40
2022-08-07T21:57:44.543Z,0.40
2022-08-07T22:00:22.732Z,0.60
2022-08-07T22:03:17.540Z,0.40
2022-08-07T22:06:30.927Z,0.40
2022-08-07T22:09:07.823Z,0.50
2022-08-07T22:12:05.238Z,0.50
2022-08-07T22:14:36.479Z,0.60
2022-08-07T22:17:06.354Z,0.43
2022-08-07T22:19:57.234Z,0.40
2022-08-07T22:22:31.949Z,0.50
2022-08-07T22:25:12.722Z,0.40
2022-08-07T22:28:30.270Z,0.50
2022-08-07T22:31:05.597Z,0.50
2022-08-07T22:33:56.034Z,0.30
2022-08-07T22:36:58.736Z,0.40
2022-08-07T22:40:20.748Z,0.43
2022-08-07T22:42:51.679Z,0.60
2022-08-07T22:46:40.543Z,0.50
2022-08-07T22:49:00.801Z,0.63
2022-08-07T22:51:44.031Z,0.50
2022-08-07T22:54:29.472Z,0.47
2022-08-07T22:57:01.657Z,0.50
2022-08-07T22:59:51.972Z,0.60
2022-08-07T23:02:34.940Z,0.53
2022-08-07T23:06:08.180Z,0.90
2022-08-07T23:08:55.994Z,0.50
2022-08-07T23:11:44.199Z,0.70
2022-08-07T23:14:37.389Z,0.53
2022-08-07T23:17:21.578Z,0.70
2022-08-07T23:20:16.257Z,0.50
2022-08-07T23:22:53.603Z,0.60
2022-08-07T23:25:47.926Z,0.50
2022-08-07T23:28:30.835Z,0.40
2022-08-07T23:31:42.939Z,0.47
2022-08-07T23:34:39.945Z,0.57
2022-08-07T23:37:34.686Z,0.83
2022-08-07T23:40:39.643Z,0.60
2022-08-07T23:43:45.334Z,0.47
2022-08-07T23:46:27.348Z,0.60
2022-08-07T23:49:19.580Z,0.63
2022-08-07T23:53:01.232Z,0.60
2022-08-07T23:54:52.948Z,0.40
2022-08-07T23:57:37.540Z,0.53
